sensor_id;sensor_type;location;lat;lon;timestamp;pressure;altitude;pressure_sealevel;temperature;humidity
58243;BME280;50118;53.232;8.252;2022-09-30T00:01:03;100583.00;;;8.48;100.00
58243;BME280;50118;53.232;8.252;2022-09-30T00:03:28;100580.19;;;8.49;100.00
58243;BME280;50118;53.232;8.252;2022-09-30T00:06:02;100581.00;;;8.40;100.00
58243;BME280;50118;53.232;8.252;2022-09-30T00:08:28;100578.59;;;8.37;100.00
58243;BME280;50118;53.232;8.252;2022-09-30T00:13:33;100579.41;;;8.28;100.00
58243;BME280;50118;53.232;8.252;2022-09-30T00:15:59;100585.69;;;8.27;100.00
58243;BME280;50118;53.232;8.252;2022-09-30T00:18:25;100590.28;;;8.25;100.00
58243;BME280;50118;53.232;8.252;2022-09-30T00:20:50;100589.84;;;8.19;100.00
58243;BME280;50118;53.232;8.252;2022-09-30T00:23:18;100595.56;;;8.15;100.00
58243;BME280;50118;53.232;8.252;2022-09-30T00:25:43;100593.72;;;8.15;100.00
58243;BME280;50118;53.232;8.252;2022-09-30T00:28:08;100583.22;;;8.04;100.00
58243;BME280;50118;53.232;8.252;2022-09-30T00:30:34;100581.09;;;7.98;100.00
58243;BME280;50118;53.232;8.252;2022-09-30T00:33:00;100589.50;;;8.03;100.00
58243;BME280;50118;53.232;8.252;2022-09-30T00:35:25;100584.75;;;7.97;100.00
58243;BME280;50118;53.232;8.252;2022-09-30T00:37:50;100580.47;;;7.84;100.00
58243;BME280;50118;53.232;8.252;2022-09-30T00:40:18;100589.91;;;7.77;100.00
58243;BME280;50118;53.232;8.252;2022-09-30T00:42:44;100593.09;;;7.71;100.00
58243;BME280;50118;53.232;8.252;2022-09-30T00:45:10;100595.03;;;7.69;100.00
58243;BME280;50118;53.232;8.252;2022-09-30T00:53:15;100596.72;;;7.70;100.00
58243;BME280;50118;53.232;8.252;2022-09-30T00:55:47;100592.00;;;7.74;100.00
58243;BME280;50118;53.232;8.252;2022-09-30T00:58:18;100594.56;;;7.64;100.00
58243;BME280;50118;53.232;8.252;2022-09-30T01:00:45;100589.53;;;7.61;100.00
58243;BME280;50118;53.232;8.252;2022-09-30T01:03:11;100586.88;;;7.61;100.00
58243;BME280;50118;53.232;8.252;2022-09-30T01:05:37;100593.88;;;7.62;100.00
58243;BME280;50118;53.232;8.252;2022-09-30T01:08:04;100593.16;;;7.60;100.00
58243;BME280;50118;53.232;8.252;2022-09-30T01:10:31;100590.78;;;7.57;100.00
58243;BME280;50118;53.232;8.252;2022-09-30T01:12:57;100595.38;;;7.55;100.00
58243;BME280;50118;53.232;8.252;2022-09-30T01:15:34;100603.25;;;7.66;100.00
58243;BME280;50118;53.232;8.252;2022-09-30T01:18:12;100591.94;;;7.64;100.00
58243;BME280;50118;53.232;8.252;2022-09-30T01:21:16;100587.66;;;7.73;100.00
58243;BME280;50118;53.232;8.252;2022-09-30T01:40:02;100594.16;;;7.90;100.00
58243;BME280;50118;53.232;8.252;2022-09-30T01:42:56;100599.47;;;7.90;100.00
58243;BME280;50118;53.232;8.252;2022-09-30T01:45:41;100588.28;;;7.86;100.00
58243;BME280;50118;53.232;8.252;2022-09-30T01:51:40;100589.72;;;7.90;100.00
58243;BME280;50118;53.232;8.252;2022-09-30T01:54:13;100586.34;;;7.88;100.00
58243;BME280;50118;53.232;8.252;2022-09-30T01:56:51;100580.47;;;7.84;100.00
58243;BME280;50118;53.232;8.252;2022-09-30T02:02:02;100579.06;;;7.80;100.00
58243;BME280;50118;53.232;8.252;2022-09-30T02:04:34;100583.78;;;7.77;100.00
58243;BME280;50118;53.232;8.252;2022-09-30T02:07:06;100587.28;;;7.77;100.00
58243;BME280;50118;53.232;8.252;2022-09-30T02:09:56;100596.72;;;7.70;100.00
58243;BME280;50118;53.232;8.252;2022-09-30T02:12:27;100599.88;;;7.64;100.00
58243;BME280;50118;53.232;8.252;2022-09-30T02:17:35;100604.81;;;7.47;100.00
58243;BME280;50118;53.232;8.252;2022-09-30T02:20:30;100608.91;;;7.40;100.00
58243;BME280;50118;53.232;8.252;2022-09-30T02:23:16;100608.47;;;7.35;100.00
58243;BME280;50118;53.232;8.252;2022-09-30T02:25:48;100615.00;;;7.31;100.00
58243;BME280;50118;53.232;8.252;2022-09-30T02:28:25;100614.66;;;7.24;100.00
58243;BME280;50118;53.232;8.252;2022-09-30T02:30:55;100609.03;;;7.18;100.00
58243;BME280;50118;53.232;8.252;2022-09-30T02:33:30;100612.03;;;7.13;100.00
58243;BME280;50118;53.232;8.252;2022-09-30T02:36:08;100613.63;;;7.04;100.00
58243;BME280;50118;53.232;8.252;2022-09-30T02:38:40;100614.63;;;7.03;100.00
58243;BME280;50118;53.232;8.252;2022-09-30T02:41:10;100616.53;;;7.01;100.00
58243;BME280;50118;53.232;8.252;2022-09-30T02:43:38;100621.13;;;6.99;100.00
58243;BME280;50118;53.232;8.252;2022-09-30T02:49:26;100641.13;;;6.92;100.00
58243;BME280;50118;53.232;8.252;2022-09-30T02:55:24;100625.47;;;6.89;100.00
58243;BME280;50118;53.232;8.252;2022-09-30T03:00:16;100640.03;;;6.95;100.00
58243;BME280;50118;53.232;8.252;2022-09-30T03:02:42;100638.00;;;6.87;100.00
58243;BME280;50118;53.232;8.252;2022-09-30T03:05:08;100637.06;;;6.88;100.00
58243;BME280;50118;53.232;8.252;2022-09-30T03:07:35;100638.25;;;6.84;100.00
58243;BME280;50118;53.232;8.252;2022-09-30T03:10:11;100639.25;;;6.83;100.00
58243;BME280;50118;53.232;8.252;2022-09-30T03:12:50;100637.53;;;6.82;100.00
58243;BME280;50118;53.232;8.252;2022-09-30T03:15:44;100635.59;;;6.84;100.00
58243;BME280;50118;53.232;8.252;2022-09-30T03:26:59;100643.06;;;6.90;100.00
58243;BME280;50118;53.232;8.252;2022-09-30T03:32:36;100651.97;;;6.89;100.00
58243;BME280;50118;53.232;8.252;2022-09-30T03:40:40;100659.41;;;6.95;100.00
58243;BME280;50118;53.232;8.252;2022-09-30T03:43:30;100657.25;;;7.00;100.00
58243;BME280;50118;53.232;8.252;2022-09-30T03:46:06;100665.16;;;7.11;100.00
58243;BME280;50118;53.232;8.252;2022-09-30T03:48:36;100668.66;;;7.12;100.00
58243;BME280;50118;53.232;8.252;2022-09-30T03:51:04;100665.13;;;7.23;100.00
58243;BME280;50118;53.232;8.252;2022-09-30T03:53:37;100657.38;;;7.31;100.00
58243;BME280;50118;53.232;8.252;2022-09-30T03:56:02;100656.63;;;7.40;100.00
58243;BME280;50118;53.232;8.252;2022-09-30T03:58:28;100667.50;;;7.37;100.00
58243;BME280;50118;53.232;8.252;2022-09-30T04:00:53;100658.09;;;7.33;100.00
58243;BME280;50118;53.232;8.252;2022-09-30T04:03:21;100673.88;;;7.35;100.00
58243;BME280;50118;53.232;8.252;2022-09-30T04:05:48;100668.69;;;7.33;100.00
58243;BME280;50118;53.232;8.252;2022-09-30T04:08:14;100667.75;;;7.34;100.00
58243;BME280;50118;53.232;8.252;2022-09-30T04:10:40;100678.47;;;7.33;100.00
58243;BME280;50118;53.232;8.252;2022-09-30T04:13:06;100678.34;;;7.34;100.00
58243;BME280;50118;53.232;8.252;2022-09-30T04:15:32;100676.16;;;7.39;100.00
58243;BME280;50118;53.232;8.252;2022-09-30T04:17:57;100683.41;;;7.37;100.00
58243;BME280;50118;53.232;8.252;2022-09-30T04:20:23;100687.97;;;7.35;100.00
58243;BME280;50118;53.232;8.252;2022-09-30T04:22:48;100690.59;;;7.35;100.00
58243;BME280;50118;53.232;8.252;2022-09-30T04:25:14;100692.31;;;7.36;100.00
58243;BME280;50118;53.232;8.252;2022-09-30T04:27:39;100699.28;;;7.37;100.00
58243;BME280;50118;53.232;8.252;2022-09-30T04:30:05;100693.72;;;7.40;100.00
58243;BME280;50118;53.232;8.252;2022-09-30T04:32:30;100694.00;;;7.37;100.00
58243;BME280;50118;53.232;8.252;2022-09-30T04:34:56;100696.66;;;7.37;100.00
58243;BME280;50118;53.232;8.252;2022-09-30T04:37:22;100700.13;;;7.38;100.00
58243;BME280;50118;53.232;8.252;2022-09-30T04:39:48;100708.91;;;7.38;100.00
58243;BME280;50118;53.232;8.252;2022-09-30T04:42:13;100706.84;;;7.42;100.00
58243;BME280;50118;53.232;8.252;2022-09-30T04:44:38;100706.84;;;7.42;100.00
58243;BME280;50118;53.232;8.252;2022-09-30T04:47:04;100709.38;;;7.43;100.00
58243;BME280;50118;53.232;8.252;2022-09-30T04:49:31;100706.72;;;7.43;100.00
58243;BME280;50118;53.232;8.252;2022-09-30T04:51:56;100712.50;;;7.48;100.00
58243;BME280;50118;53.232;8.252;2022-09-30T04:54:22;100710.09;;;7.45;100.00
58243;BME280;50118;53.232;8.252;2022-09-30T04:56:49;100714.44;;;7.46;100.00
58243;BME280;50118;53.232;8.252;2022-09-30T04:59:14;100719.72;;;7.46;100.00
58243;BME280;50118;53.232;8.252;2022-09-30T05:01:40;100719.72;;;7.46;100.00
58243;BME280;50118;53.232;8.252;2022-09-30T05:04:07;100719.72;;;7.46;100.00
58243;BME280;50118;53.232;8.252;2022-09-30T05:06:33;100726.72;;;7.47;100.00
58243;BME280;50118;53.232;8.252;2022-09-30T05:08:59;100723.94;;;7.49;100.00
58243;BME280;50118;53.232;8.252;2022-09-30T05:11:24;100728.63;;;7.45;100.00
58243;BME280;50118;53.232;8.252;2022-09-30T05:13:50;100729.38;;;7.47;100.00
58243;BME280;50118;53.232;8.252;2022-09-30T05:16:16;100721.44;;;7.47;100.00
58243;BME280;50118;53.232;8.252;2022-09-30T05:18:42;100725.03;;;7.46;100.00
58243;BME280;50118;53.232;8.252;2022-09-30T05:21:11;100733.94;;;7.45;100.00
58243;BME280;50118;53.232;8.252;2022-09-30T05:23:37;100734.94;;;7.44;100.00
58243;BME280;50118;53.232;8.252;2022-09-30T05:26:02;100731.03;;;7.48;100.00
58243;BME280;50118;53.232;8.252;2022-09-30T05:28:28;100732.28;;;7.44;100.00
58243;BME280;50118;53.232;8.252;2022-09-30T05:31:00;100731.56;;;7.42;100.00
58243;BME280;50118;53.232;8.252;2022-09-30T05:33:27;100735.28;;;7.40;100.00
58243;BME280;50118;53.232;8.252;2022-09-30T05:35:54;100743.72;;;7.34;100.00
58243;BME280;50118;53.232;8.252;2022-09-30T05:38:20;100738.56;;;7.32;100.00
58243;BME280;50118;53.232;8.252;2022-09-30T05:40:45;100753.16;;;7.26;100.00
58243;BME280;50118;53.232;8.252;2022-09-30T05:43:10;100751.09;;;7.30;100.00
58243;BME280;50118;53.232;8.252;2022-09-30T05:45:36;100752.44;;;7.24;100.00
58243;BME280;50118;53.232;8.252;2022-09-30T05:48:02;100757.97;;;7.21;100.00
58243;BME280;50118;53.232;8.252;2022-09-30T05:50:28;100755.69;;;7.17;100.00
58243;BME280;50118;53.232;8.252;2022-09-30T05:52:53;100759.19;;;7.17;100.00
58243;BME280;50118;53.232;8.252;2022-09-30T05:55:19;100757.38;;;7.18;100.00
58243;BME280;50118;53.232;8.252;2022-09-30T05:57:47;100756.44;;;7.19;100.00
58243;BME280;50118;53.232;8.252;2022-09-30T06:00:14;100759.91;;;7.19;100.00
58243;BME280;50118;53.232;8.252;2022-09-30T06:02:39;100762.69;;;7.18;100.00
58243;BME280;50118;53.232;8.252;2022-09-30T06:05:08;100757.97;;;7.21;100.00
58243;BME280;50118;53.232;8.252;2022-09-30T06:07:35;100766.16;;;7.18;100.00
58243;BME280;50118;53.232;8.252;2022-09-30T06:10:02;100764.84;;;7.13;100.00
58243;BME280;50118;53.232;8.252;2022-09-30T06:12:28;100769.56;;;7.20;100.00
58243;BME280;50118;53.232;8.252;2022-09-30T06:14:54;100772.78;;;7.24;100.00
58243;BME280;50118;53.232;8.252;2022-09-30T06:17:21;100775.31;;;7.25;100.00
58243;BME280;50118;53.232;8.252;2022-09-30T06:19:46;100763.97;;;7.23;100.00
58243;BME280;50118;53.232;8.252;2022-09-30T06:22:14;100758.56;;;7.25;100.00
58243;BME280;50118;53.232;8.252;2022-09-30T06:24:40;100765.31;;;7.29;100.00
58243;BME280;50118;53.232;8.252;2022-09-30T06:27:05;100768.91;;;7.28;100.00
58243;BME280;50118;53.232;8.252;2022-09-30T06:29:31;100771.34;;;7.20;100.00
58243;BME280;50118;53.232;8.252;2022-09-30T06:31:56;100772.28;;;7.30;100.00
58243;BME280;50118;53.232;8.252;2022-09-30T06:34:21;100776.84;;;7.39;100.00
58243;BME280;50118;53.232;8.252;2022-09-30T06:36:49;100777.69;;;7.40;100.00
58243;BME280;50118;53.232;8.252;2022-09-30T06:39:14;100784.56;;;7.31;100.00
58243;BME280;50118;53.232;8.252;2022-09-30T06:41:39;100780.22;;;7.41;100.00
58243;BME280;50118;53.232;8.252;2022-09-30T06:44:08;100772.75;;;7.46;100.00
58243;BME280;50118;53.232;8.252;2022-09-30T06:46:34;100782.84;;;7.53;100.00
58243;BME280;50118;53.232;8.252;2022-09-30T06:49:00;100795.28;;;7.41;100.00
58243;BME280;50118;53.232;8.252;2022-09-30T06:51:26;100793.19;;;7.56;100.00
58243;BME280;50118;53.232;8.252;2022-09-30T06:53:54;100797.75;;;7.65;100.00
58243;BME280;50118;53.232;8.252;2022-09-30T06:56:20;100797.25;;;7.71;100.00
58243;BME280;50118;53.232;8.252;2022-09-30T06:58:47;100802.31;;;7.74;100.00
58243;BME280;50118;53.232;8.252;2022-09-30T07:01:13;100806.06;;;7.72;100.00
58243;BME280;50118;53.232;8.252;2022-09-30T07:03:41;100814.84;;;7.72;100.00
58243;BME280;50118;53.232;8.252;2022-09-30T07:06:07;100817.28;;;7.64;100.00
58243;BME280;50118;53.232;8.252;2022-09-30T07:08:35;100805.16;;;7.82;100.00
58243;BME280;50118;53.232;8.252;2022-09-30T07:11:04;100815.88;;;7.92;100.00
58243;BME280;50118;53.232;8.252;2022-09-30T07:13:32;100810.91;;;7.99;100.00
58243;BME280;50118;53.232;8.252;2022-09-30T07:15:58;100812.09;;;8.06;100.00
58243;BME280;50118;53.232;8.252;2022-09-30T07:18:24;100814.03;;;8.04;100.00
58243;BME280;50118;53.232;8.252;2022-09-30T07:20:53;100815.09;;;8.01;100.00
58243;BME280;50118;53.232;8.252;2022-09-30T07:23:19;100816.56;;;8.06;100.00
58243;BME280;50118;53.232;8.252;2022-09-30T07:25:54;100815.53;;;8.18;100.00
58243;BME280;50118;53.232;8.252;2022-09-30T07:28:24;100805.81;;;8.28;100.00
58243;BME280;50118;53.232;8.252;2022-09-30T07:30:55;100804.09;;;8.38;100.00
58243;BME280;50118;53.232;8.252;2022-09-30T07:33:22;100809.69;;;8.56;100.00
58243;BME280;50118;53.232;8.252;2022-09-30T07:35:52;100810.03;;;8.73;100.00
58243;BME280;50118;53.232;8.252;2022-09-30T07:38:19;100803.16;;;8.91;100.00
58243;BME280;50118;53.232;8.252;2022-09-30T07:41:00;100809.69;;;9.18;100.00
58243;BME280;50118;53.232;8.252;2022-09-30T07:43:28;100810.22;;;9.52;100.00
58243;BME280;50118;53.232;8.252;2022-09-30T07:46:07;100801.56;;;9.70;100.00
58243;BME280;50118;53.232;8.252;2022-09-30T07:48:33;100806.91;;;9.99;100.00
58243;BME280;50118;53.232;8.252;2022-09-30T07:51:13;100803.69;;;10.15;100.00
58243;BME280;50118;53.232;8.252;2022-09-30T07:53:40;100804.25;;;10.28;100.00
58243;BME280;50118;53.232;8.252;2022-09-30T07:56:07;100804.53;;;10.45;100.00
58243;BME280;50118;53.232;8.252;2022-09-30T07:58:36;100805.56;;;10.81;100.00
58243;BME280;50118;53.232;8.252;2022-09-30T08:01:02;100805.91;;;10.96;100.00
58243;BME280;50118;53.232;8.252;2022-09-30T08:03:34;100800.28;;;11.09;100.00
58243;BME280;50118;53.232;8.252;2022-09-30T08:06:11;100807.72;;;11.33;100.00
58243;BME280;50118;53.232;8.252;2022-09-30T08:08:36;100810.16;;;11.54;100.00
58243;BME280;50118;53.232;8.252;2022-09-30T08:11:03;100806.75;;;11.80;100.00
58243;BME280;50118;53.232;8.252;2022-09-30T08:13:30;100815.06;;;11.95;100.00
58243;BME280;50118;53.232;8.252;2022-09-30T08:15:55;100810.44;;;12.15;100.00
58243;BME280;50118;53.232;8.252;2022-09-30T08:18:21;100822.94;;;12.14;100.00
58243;BME280;50118;53.232;8.252;2022-09-30T08:20:47;100812.34;;;12.23;100.00
58243;BME280;50118;53.232;8.252;2022-09-30T08:23:13;100821.78;;;12.17;100.00
58243;BME280;50118;53.232;8.252;2022-09-30T08:25:38;100820.72;;;12.28;100.00
58243;BME280;50118;53.232;8.252;2022-09-30T08:28:04;100822.16;;;12.40;100.00
58243;BME280;50118;53.232;8.252;2022-09-30T08:30:29;100817.09;;;12.55;100.00
58243;BME280;50118;53.232;8.252;2022-09-30T08:32:55;100816.81;;;12.66;100.00
58243;BME280;50118;53.232;8.252;2022-09-30T08:35:21;100830.97;;;13.19;100.00
58243;BME280;50118;53.232;8.252;2022-09-30T08:37:47;100820.44;;;13.44;94.50
58243;BME280;50118;53.232;8.252;2022-09-30T08:40:40;100820.69;;;13.75;91.65
58243;BME280;50118;53.232;8.252;2022-09-30T08:43:29;100821.38;;;13.77;93.39
58243;BME280;50118;53.232;8.252;2022-09-30T08:46:48;100823.41;;;14.33;92.04
58243;BME280;50118;53.232;8.252;2022-09-30T08:51:55;100821.41;;;14.51;87.90
58243;BME280;50118;53.232;8.252;2022-09-30T08:54:24;100822.72;;;14.55;86.38
58243;BME280;50118;53.232;8.252;2022-09-30T08:56:54;100823.41;;;14.82;87.22
58243;BME280;50118;53.232;8.252;2022-09-30T08:59:34;100836.13;;;14.97;83.37
58243;BME280;50118;53.232;8.252;2022-09-30T09:02:32;100841.75;;;15.10;83.45
58243;BME280;50118;53.232;8.252;2022-09-30T09:05:04;100844.81;;;15.07;81.46
58243;BME280;50118;53.232;8.252;2022-09-30T09:07:57;100841.25;;;15.06;83.66
58243;BME280;50118;53.232;8.252;2022-09-30T09:10:44;100847.06;;;15.26;83.61
58243;BME280;50118;53.232;8.252;2022-09-30T09:16:21;100843.38;;;15.75;77.34
58243;BME280;50118;53.232;8.252;2022-09-30T09:19:36;100837.44;;;15.80;81.07
58243;BME280;50118;53.232;8.252;2022-09-30T09:22:02;100842.31;;;16.08;77.19
58243;BME280;50118;53.232;8.252;2022-09-30T09:24:42;100842.19;;;16.01;75.95
58243;BME280;50118;53.232;8.252;2022-09-30T09:27:40;100832.75;;;16.28;74.43
58243;BME280;50118;53.232;8.252;2022-09-30T09:30:29;100842.25;;;16.39;76.13
58243;BME280;50118;53.232;8.252;2022-09-30T09:33:14;100836.91;;;16.16;76.05
58243;BME280;50118;53.232;8.252;2022-09-30T09:39:47;100837.03;;;16.37;73.61
58243;BME280;50118;53.232;8.252;2022-09-30T09:42:04;100831.25;;;16.25;74.58
58243;BME280;50118;53.232;8.252;2022-09-30T09:58:05;100830.41;;;16.48;72.52
58243;BME280;50118;53.232;8.252;2022-09-30T10:01:08;100831.84;;;16.36;74.85
58243;BME280;50118;53.232;8.252;2022-09-30T10:04:05;100832.81;;;16.20;73.07
58243;BME280;50118;53.232;8.252;2022-09-30T10:07:12;100835.97;;;15.69;75.35
58243;BME280;50118;53.232;8.252;2022-09-30T10:09:40;100837.88;;;15.60;77.06
58243;BME280;50118;53.232;8.252;2022-09-30T10:14:32;100835.00;;;15.93;74.96
58243;BME280;50118;53.232;8.252;2022-09-30T10:16:59;100838.25;;;15.89;76.99
58243;BME280;50118;53.232;8.252;2022-09-30T10:19:28;100828.41;;;15.73;76.87
58243;BME280;50118;53.232;8.252;2022-09-30T10:25:42;100840.03;;;15.96;74.43
58243;BME280;50118;53.232;8.252;2022-09-30T10:28:24;100829.38;;;15.48;74.89
58243;BME280;50118;53.232;8.252;2022-09-30T10:31:06;100829.22;;;15.73;73.93
58243;BME280;50118;53.232;8.252;2022-09-30T10:40:38;100821.91;;;16.74;70.03
58243;BME280;50118;53.232;8.252;2022-09-30T10:43:32;100819.47;;;16.88;69.33
58243;BME280;50118;53.232;8.252;2022-09-30T10:45:59;100819.16;;;16.83;68.31
58243;BME280;50118;53.232;8.252;2022-09-30T10:48:32;100819.66;;;17.01;67.48
58243;BME280;50118;53.232;8.252;2022-09-30T10:50:59;100826.97;;;17.07;66.64
58243;BME280;50118;53.232;8.252;2022-09-30T10:53:55;100818.34;;;16.97;66.52
58243;BME280;50118;53.232;8.252;2022-09-30T10:57:05;100822.53;;;16.23;68.31
58243;BME280;50118;53.232;8.252;2022-09-30T10:59:41;100823.59;;;16.37;69.75
58243;BME280;50118;53.232;8.252;2022-09-30T11:02:48;100821.09;;;16.36;71.49
58243;BME280;50118;53.232;8.252;2022-09-30T11:05:21;100823.16;;;16.11;71.22
58243;BME280;50118;53.232;8.252;2022-09-30T11:08:10;100826.31;;;15.91;71.65
58243;BME280;50118;53.232;8.252;2022-09-30T11:10:44;100836.75;;;15.86;70.04
58243;BME280;50118;53.232;8.252;2022-09-30T11:22:37;100833.75;;;16.50;70.47
58243;BME280;50118;53.232;8.252;2022-09-30T11:24:54;100820.75;;;16.92;68.81
58243;BME280;50118;53.232;8.252;2022-09-30T11:30:23;100824.28;;;17.73;63.79
58243;BME280;50118;53.232;8.252;2022-09-30T11:45:51;100809.22;;;17.43;62.91
58243;BME280;50118;53.232;8.252;2022-09-30T11:51:56;100804.78;;;17.05;64.18
58243;BME280;50118;53.232;8.252;2022-09-30T11:57:36;100812.19;;;17.33;60.80
58243;BME280;50118;53.232;8.252;2022-09-30T12:02:50;100795.47;;;17.38;59.65
58243;BME280;50118;53.232;8.252;2022-09-30T12:05:18;100795.50;;;17.23;61.16
58243;BME280;50118;53.232;8.252;2022-09-30T12:07:53;100793.34;;;16.73;61.07
58243;BME280;50118;53.232;8.252;2022-09-30T12:16:36;100793.72;;;15.94;65.46
58243;BME280;50118;53.232;8.252;2022-09-30T12:19:12;100800.81;;;15.87;66.22
58243;BME280;50118;53.232;8.252;2022-09-30T12:21:45;100791.78;;;15.80;66.91
58243;BME280;50118;53.232;8.252;2022-09-30T12:24:37;100790.91;;;16.11;67.28
58243;BME280;50118;53.232;8.252;2022-09-30T12:27:09;100786.72;;;16.31;64.47
58243;BME280;50118;53.232;8.252;2022-09-30T12:29:39;100787.44;;;16.02;64.55
58243;BME280;50118;53.232;8.252;2022-09-30T12:41:14;100788.19;;;15.33;68.07
58243;BME280;50118;53.232;8.252;2022-09-30T12:49:17;100779.00;;;15.27;68.65
58243;BME280;50118;53.232;8.252;2022-09-30T12:51:48;100772.09;;;14.93;68.88
58243;BME280;50118;53.232;8.252;2022-09-30T12:54:27;100767.97;;;15.14;68.34
58243;BME280;50118;53.232;8.252;2022-09-30T12:56:57;100763.31;;;15.08;69.44
58243;BME280;50118;53.232;8.252;2022-09-30T12:59:44;100766.91;;;14.84;71.20
58243;BME280;50118;53.232;8.252;2022-09-30T13:02:29;100769.94;;;14.81;73.35
58243;BME280;50118;53.232;8.252;2022-09-30T13:15:45;100770.19;;;15.42;65.87
58243;BME280;50118;53.232;8.252;2022-09-30T13:20:55;100756.09;;;15.40;66.17
58243;BME280;50118;53.232;8.252;2022-09-30T13:26:36;100755.38;;;15.46;65.81
58243;BME280;50118;53.232;8.252;2022-09-30T13:40:54;100759.75;;;15.16;65.99
58243;BME280;50118;53.232;8.252;2022-09-30T13:43:30;100751.56;;;15.09;67.84
58243;BME280;50118;53.232;8.252;2022-09-30T13:46:26;100744.22;;;15.03;67.79
58243;BME280;50118;53.232;8.252;2022-09-30T13:48:57;100731.72;;;15.18;66.92
58243;BME280;50118;53.232;8.252;2022-09-30T13:51:28;100742.78;;;15.23;67.82
58243;BME280;50118;53.232;8.252;2022-09-30T13:54:01;100736.81;;;15.05;67.27
58243;BME280;50118;53.232;8.252;2022-09-30T13:56:32;100749.84;;;15.16;67.05
58243;BME280;50118;53.232;8.252;2022-09-30T14:04:43;100740.75;;;14.86;68.03
58243;BME280;50118;53.232;8.252;2022-09-30T14:10:17;100732.22;;;14.82;70.45
58243;BME280;50118;53.232;8.252;2022-09-30T14:15:28;100726.97;;;15.28;67.67
58243;BME280;50118;53.232;8.252;2022-09-30T14:18:20;100724.06;;;15.38;67.48
58243;BME280;50118;53.232;8.252;2022-09-30T14:23:23;100718.97;;;15.20;68.83
58243;BME280;50118;53.232;8.252;2022-09-30T14:29:49;100721.63;;;14.89;71.43
58243;BME280;50118;53.232;8.252;2022-09-30T14:31:58;100710.09;;;14.88;70.67
58243;BME280;50118;53.232;8.252;2022-09-30T14:34:26;100719.97;;;14.88;71.00
58243;BME280;50118;53.232;8.252;2022-09-30T14:36:54;100715.59;;;14.95;69.75
58243;BME280;50118;53.232;8.252;2022-09-30T14:39:25;100714.72;;;14.94;68.23
58243;BME280;50118;53.232;8.252;2022-09-30T14:41:59;100713.72;;;15.04;68.83
58243;BME280;50118;53.232;8.252;2022-09-30T14:44:30;100713.44;;;14.90;68.48
58243;BME280;50118;53.232;8.252;2022-09-30T14:46:58;100707.84;;;15.00;68.02
58243;BME280;50118;53.232;8.252;2022-09-30T14:49:29;100712.94;;;15.18;66.76
58243;BME280;50118;53.232;8.252;2022-09-30T14:51:59;100707.72;;;14.93;67.51
58243;BME280;50118;53.232;8.252;2022-09-30T14:54:28;100710.63;;;14.75;68.58
58243;BME280;50118;53.232;8.252;2022-09-30T14:56:54;100700.94;;;14.74;68.78
58243;BME280;50118;53.232;8.252;2022-09-30T14:59:25;100710.28;;;14.79;69.16
58243;BME280;50118;53.232;8.252;2022-09-30T15:01:56;100700.72;;;14.76;69.60
58243;BME280;50118;53.232;8.252;2022-09-30T15:04:27;100706.50;;;14.65;70.59
58243;BME280;50118;53.232;8.252;2022-09-30T15:06:54;100705.31;;;14.59;68.79
58243;BME280;50118;53.232;8.252;2022-09-30T15:09:40;100702.28;;;14.54;68.90
58243;BME280;50118;53.232;8.252;2022-09-30T15:12:15;100694.06;;;14.64;69.54
58243;BME280;50118;53.232;8.252;2022-09-30T15:17:35;100688.69;;;14.72;67.78
58243;BME280;50118;53.232;8.252;2022-09-30T15:20:23;100694.44;;;14.52;68.95
58243;BME280;50118;53.232;8.252;2022-09-30T15:22:51;100691.06;;;14.50;68.48
58243;BME280;50118;53.232;8.252;2022-09-30T15:25:18;100695.13;;;14.46;69.37
58243;BME280;50118;53.232;8.252;2022-09-30T15:27:46;100703.50;;;14.43;69.81
58243;BME280;50118;53.232;8.252;2022-09-30T15:32:40;100690.09;;;14.43;69.90
58243;BME280;50118;53.232;8.252;2022-09-30T15:35:12;100693.66;;;14.35;70.46
58243;BME280;50118;53.232;8.252;2022-09-30T15:37:49;100687.75;;;14.40;70.59
58243;BME280;50118;53.232;8.252;2022-09-30T15:40:18;100686.25;;;14.37;71.04
58243;BME280;50118;53.232;8.252;2022-09-30T15:43:07;100688.13;;;14.37;70.21
58243;BME280;50118;53.232;8.252;2022-09-30T15:45:40;100691.16;;;14.26;70.18
58243;BME280;50118;53.232;8.252;2022-09-30T15:50:40;100693.34;;;14.22;70.63
58243;BME280;50118;53.232;8.252;2022-09-30T15:53:52;100688.47;;;14.17;71.04
58243;BME280;50118;53.232;8.252;2022-09-30T15:56:32;100690.84;;;14.04;71.95
58243;BME280;50118;53.232;8.252;2022-09-30T15:59:09;100681.81;;;14.05;71.87
58243;BME280;50118;53.232;8.252;2022-09-30T16:04:11;100689.34;;;14.10;72.76
58243;BME280;50118;53.232;8.252;2022-09-30T16:07:08;100691.16;;;14.01;71.41
58243;BME280;50118;53.232;8.252;2022-09-30T16:09:39;100680.81;;;13.90;71.70
58243;BME280;50118;53.232;8.252;2022-09-30T16:12:20;100676.78;;;13.86;71.42
58243;BME280;50118;53.232;8.252;2022-09-30T16:17:48;100672.94;;;13.80;73.12
58243;BME280;50118;53.232;8.252;2022-09-30T16:27:41;100681.81;;;13.48;73.94
58243;BME280;50118;53.232;8.252;2022-09-30T16:30:08;100683.16;;;13.43;74.66
58243;BME280;50118;53.232;8.252;2022-09-30T16:32:39;100691.47;;;13.32;76.07
58243;BME280;50118;53.232;8.252;2022-09-30T16:35:08;100691.25;;;13.25;75.07
58243;BME280;50118;53.232;8.252;2022-09-30T16:37:39;100686.41;;;13.21;76.96
58243;BME280;50118;53.232;8.252;2022-09-30T16:40:26;100692.06;;;13.10;76.78
58243;BME280;50118;53.232;8.252;2022-09-30T16:42:53;100690.00;;;12.95;77.10
58243;BME280;50118;53.232;8.252;2022-09-30T16:45:24;100687.84;;;12.91;77.35
58243;BME280;50118;53.232;8.252;2022-09-30T16:47:55;100693.00;;;12.84;78.37
58243;BME280;50118;53.232;8.252;2022-09-30T16:50:27;100697.63;;;12.74;79.58
58243;BME280;50118;53.232;8.252;2022-09-30T16:52:53;100687.88;;;12.64;79.67